Time;durP1;ratioP1;P1;durP2;ratioP2;P2;SDS_P1;SDS_P2;PMS_P1;PMS_P2;Temp;Humidity;BMP_temperature;BMP_pressure;BME280_temperature;BME280_humidity;BME280_pressure;Samples;Min_cycle;Max_cycle;Signal;HPM_P1;HPM_P2
2024/04/07 00:01:54;;;;;;;;;;;;;;;2.03;100.00;101538.50;5072374;28;19966;-69
2024/04/07 00:04:19;;;;;;;;;;;;;;;2.01;100.00;101534.25;5073439;28;20003;-70
2024/04/07 00:06:45;;;;;;;;;;;;;;;1.99;100.00;101536.13;5073489;28;19963;-67
2024/04/07 00:09:10;;;;;;;;;;;;;;;1.96;100.00;101538.94;5073282;28;19971;-70
2024/04/07 00:11:35;;;;;;;;;;;;;;;2.03;100.00;101535.88;5073618;28;19943;-71
2024/04/07 00:14:01;;;;;;;;;;;;;;;2.06;100.00;101538.34;5073587;28;20415;-69
2024/04/07 00:16:26;;;;;;;;;;;;;;;2.00;100.00;101541.28;5073315;28;19927;-68
2024/04/07 00:18:51;;;;;;;;;;;;;;;2.00;100.00;101549.16;5072401;28;19921;-69
2024/04/07 00:21:17;;;;;;;;;;;;;;;2.06;100.00;101553.25;5072993;28;19924;-69
2024/04/07 00:23:42;;;;;;;;;;;;;;;2.12;100.00;101550.25;5073647;28;19921;-69
2024/04/07 00:26:07;;;;;;;;;;;;;;;2.16;100.00;101550.00;5073708;28;19950;-67
2024/04/07 00:28:33;;;;;;;;;;;;;;;2.24;100.00;101556.56;5072365;28;19924;-68
2024/04/07 00:31:01;;;;;;;;;;;;;;;2.23;100.00;101565.41;5073450;28;20396;-67
2024/04/07 00:33:26;;;;;;;;;;;;;;;2.06;100.00;101564.59;5072844;28;19965;-69
2024/04/07 00:35:55;;;;;;;;;;;;;;;1.97;100.00;101554.59;5073102;28;20365;-68
2024/04/07 00:38:20;;;;;;;;;;;;;;;1.93;100.00;101550.47;5074385;28;20391;-65
2024/04/07 00:40:46;;;;;;;;;;;;;;;1.98;100.00;101550.19;5087536;28;19940;-66
2024/04/07 00:43:11;;;;;;;;;;;;;;;2.06;100.00;101553.25;5076586;28;19982;-70
2024/04/07 00:45:36;;;;;;;;;;;;;;;2.06;100.00;101554.09;5079456;28;19984;-70
2024/04/07 00:48:02;;;;;;;;;;;;;;;2.10;100.00;101563.50;5073430;28;19967;-70
2024/04/07 00:50:27;;;;;;;;;;;;;;;2.12;100.00;101569.50;5073314;28;19952;-70
2024/04/07 00:52:54;;;;;;;;;;;;;;;2.10;100.00;101576.63;5074199;28;19921;-68
2024/04/07 00:55:19;;;;;;;;;;;;;;;2.15;100.00;101582.47;5084554;28;19920;-65
2024/04/07 00:57:45;;;;;;;;;;;;;;;2.26;100.00;101591.50;5085376;28;19943;-66
2024/04/07 01:00:10;;;;;;;;;;;;;;;2.30;100.00;101595.63;5082149;28;19920;-68
2024/04/07 01:02:36;;;;;;;;;;;;;;;2.29;100.00;101599.19;5076924;28;19920;-70
2024/04/07 01:05:01;;;;;;;;;;;;;;;2.18;100.00;101600.69;5078641;28;19920;-67
2024/04/07 01:07:27;;;;;;;;;;;;;;;2.07;100.00;101597.81;5072816;28;20406;-71
2024/04/07 01:09:53;;;;;;;;;;;;;;;1.94;100.00;101607.31;5073532;28;20008;-69
2024/04/07 01:12:19;;;;;;;;;;;;;;;1.86;100.00;101605.13;5073182;28;20382;-69
2024/04/07 01:14:44;;;;;;;;;;;;;;;1.85;100.00;101615.72;5072991;28;19920;-68
2024/04/07 01:17:09;;;;;;;;;;;;;;;1.69;100.00;101612.25;5072433;28;20450;-69
2024/04/07 01:19:35;;;;;;;;;;;;;;;1.61;100.00;101614.47;5072759;28;19920;-68
2024/04/07 01:22:01;;;;;;;;;;;;;;;1.65;100.00;101619.44;5072417;28;19947;-68
2024/04/07 01:24:26;;;;;;;;;;;;;;;1.71;100.00;101618.25;5072939;28;19924;-71
2024/04/07 01:26:52;;;;;;;;;;;;;;;1.78;100.00;101617.84;5074323;28;20327;-69
2024/04/07 01:29:18;;;;;;;;;;;;;;;1.72;100.00;101619.94;5072607;28;19932;-67
2024/04/07 01:31:44;;;;;;;;;;;;;;;1.72;100.00;101619.94;5071011;28;19928;-70
2024/04/07 01:34:09;;;;;;;;;;;;;;;1.70;100.00;101629.69;5072300;28;19924;-69
2024/04/07 01:36:34;;;;;;;;;;;;;;;1.71;100.00;101631.38;5072419;28;19921;-69
2024/04/07 01:39:00;;;;;;;;;;;;;;;1.68;100.00;101637.66;5072249;28;19947;-70
2024/04/07 01:41:25;;;;;;;;;;;;;;;1.72;100.00;101633.94;5054961;28;19950;-68
2024/04/07 01:43:50;;;;;;;;;;;;;;;1.63;100.00;101631.81;5072589;28;19920;-71
2024/04/07 01:46:16;;;;;;;;;;;;;;;1.69;100.00;101641.13;5072281;28;19924;-70
2024/04/07 01:48:41;;;;;;;;;;;;;;;1.67;100.00;101629.88;5072078;28;19920;-67
2024/04/07 01:51:07;;;;;;;;;;;;;;;1.68;100.00;101623.69;5071036;28;20061;-71
2024/04/07 01:53:32;;;;;;;;;;;;;;;1.73;100.00;101635.63;5072451;28;19924;-69
2024/04/07 01:55:58;;;;;;;;;;;;;;;1.82;100.00;101632.50;5071935;28;20288;-70
2024/04/07 01:58:23;;;;;;;;;;;;;;;1.91;100.00;101625.88;5074232;28;19928;-68
2024/04/07 02:00:48;;;;;;;;;;;;;;;1.93;100.00;101628.44;5071032;28;19956;-68
2024/04/07 02:03:14;;;;;;;;;;;;;;;1.89;100.00;101630.38;5071825;28;20347;-71
2024/04/07 02:05:39;;;;;;;;;;;;;;;1.83;100.00;101630.72;5072087;28;20498;-70
2024/04/07 02:08:04;;;;;;;;;;;;;;;1.75;100.00;101635.56;5071977;28;19943;-70
2024/04/07 02:10:30;;;;;;;;;;;;;;;1.63;100.00;101634.44;5070791;28;20317;-68
2024/04/07 02:12:55;;;;;;;;;;;;;;;1.57;100.00;101649.69;5071774;28;19920;-72
2024/04/07 02:15:20;;;;;;;;;;;;;;;1.54;100.00;101656.81;5072014;28;19921;-70
2024/04/07 02:17:46;;;;;;;;;;;;;;;1.53;100.00;101655.09;5075271;28;20303;-66
2024/04/07 02:20:11;;;;;;;;;;;;;;;1.50;100.00;101647.41;5076024;28;20340;-69
2024/04/07 02:22:37;;;;;;;;;;;;;;;1.55;100.00;101652.41;5057919;28;19931;-69
2024/04/07 02:25:02;;;;;;;;;;;;;;;1.51;100.00;101651.72;5074873;28;19924;-70
2024/04/07 02:27:28;;;;;;;;;;;;;;;1.48;100.00;101646.66;5075893;28;20269;-68
2024/04/07 02:29:54;;;;;;;;;;;;;;;1.52;100.00;101642.91;5075615;28;19947;-69
2024/04/07 02:32:19;;;;;;;;;;;;;;;1.62;100.00;101652.91;5075919;28;19948;-70
2024/04/07 02:34:46;;;;;;;;;;;;;;;1.67;100.00;101645.63;5075860;28;19928;-69
2024/04/07 02:37:11;;;;;;;;;;;;;;;1.66;100.00;101643.94;5076995;28;19921;-70
2024/04/07 02:39:36;;;;;;;;;;;;;;;1.66;100.00;101650.03;5077918;28;19974;-73
2024/04/07 02:42:02;;;;;;;;;;;;;;;1.67;100.00;101650.88;5078184;28;19920;-70
2024/04/07 02:49:55;;;;;;;;;;;;;;;1.74;100.00;101655.72;5075803;28;19927;-69
2024/04/07 02:52:20;;;;;;;;;;;;;;;1.77;100.00;101667.84;5075880;28;20011;-69
2024/04/07 02:54:46;;;;;;;;;;;;;;;1.74;100.00;101673.28;5075348;28;19920;-69
2024/04/07 02:57:12;;;;;;;;;;;;;;;1.69;100.00;101680.53;5075450;28;20371;-68
2024/04/07 02:59:38;;;;;;;;;;;;;;;1.60;100.00;101686.28;5073872;28;19928;-67
2024/04/07 03:02:03;;;;;;;;;;;;;;;1.55;100.00;101689.16;5075836;28;19924;-69
2024/04/07 03:04:28;;;;;;;;;;;;;;;1.54;100.00;101693.56;5075583;28;19974;-70
2024/04/07 03:06:56;;;;;;;;;;;;;;;1.53;100.00;101699.75;5075535;28;20371;-71
2024/04/07 03:09:22;;;;;;;;;;;;;;;1.54;100.00;101697.97;5075287;28;20341;-69
2024/04/07 03:11:47;;;;;;;;;;;;;;;1.57;100.00;101704.81;5074917;28;19921;-70
2024/04/07 03:14:12;;;;;;;;;;;;;;;1.56;100.00;101703.97;5073510;28;19970;-69
2024/04/07 03:16:38;;;;;;;;;;;;;;;1.50;100.00;101686.78;5074930;28;20287;-68
2024/04/07 03:19:03;;;;;;;;;;;;;;;1.48;100.00;101688.66;5073964;28;19967;-70
2024/04/07 03:21:28;;;;;;;;;;;;;;;1.51;100.00;101696.34;5073678;28;19972;-68
2024/04/07 03:23:54;;;;;;;;;;;;;;;1.57;100.00;101692.53;5074962;28;20355;-70
2024/04/07 03:26:19;;;;;;;;;;;;;;;1.71;100.00;101702.28;5074338;28;20035;-70
2024/04/07 03:28:47;;;;;;;;;;;;;;;1.73;100.00;101708.31;5073282;28;19930;-69
2024/04/07 03:31:13;;;;;;;;;;;;;;;1.69;100.00;101698.91;5074908;28;19960;-70
2024/04/07 03:33:39;;;;;;;;;;;;;;;1.62;100.00;101701.00;5074849;28;19947;-69
2024/04/07 03:36:04;;;;;;;;;;;;;;;1.51;100.00;101706.84;5077921;28;20380;-67
2024/04/07 03:38:30;;;;;;;;;;;;;;;1.42;100.00;101699.44;5075879;28;20446;-71
2024/04/07 03:40:55;;;;;;;;;;;;;;;1.32;100.00;101687.75;5074689;28;20368;-70
2024/04/07 03:43:20;;;;;;;;;;;;;;;1.28;100.00;101696.72;5074527;28;20424;-68
2024/04/07 03:45:46;;;;;;;;;;;;;;;1.26;100.00;101697.72;5074300;28;19929;-69
2024/04/07 03:48:12;;;;;;;;;;;;;;;1.33;100.00;101704.34;5073359;28;19921;-73
2024/04/07 03:50:40;;;;;;;;;;;;;;;1.37;100.00;101701.47;5073867;28;20345;-67
2024/04/07 03:53:05;;;;;;;;;;;;;;;1.40;100.00;101701.31;5074934;28;20358;-68
2024/04/07 03:55:31;;;;;;;;;;;;;;;1.40;100.00;101716.19;5075750;28;19993;-69
2024/04/07 03:57:56;;;;;;;;;;;;;;;1.45;100.00;101701.94;5077417;28;19928;-69
2024/04/07 04:00:21;;;;;;;;;;;;;;;1.58;100.00;101703.91;5077333;28;19927;-68
2024/04/07 04:02:50;;;;;;;;;;;;;;;1.66;100.00;101722.69;5078845;28;19928;-71
2024/04/07 04:05:16;;;;;;;;;;;;;;;1.70;100.00;101730.34;5076463;28;19926;-69
2024/04/07 04:07:41;;;;;;;;;;;;;;;1.69;100.00;101733.03;5074886;28;20019;-70
2024/04/07 04:10:07;;;;;;;;;;;;;;;1.71;100.00;101731.19;5073846;28;20433;-66
2024/04/07 04:12:32;;;;;;;;;;;;;;;1.73;100.00;101737.19;5073621;28;19927;-71
2024/04/07 04:14:57;;;;;;;;;;;;;;;1.75;100.00;101728.34;5074355;28;19992;-69
2024/04/07 04:17:23;;;;;;;;;;;;;;;1.74;100.00;101720.53;5074099;28;19971;-69
2024/04/07 04:19:49;;;;;;;;;;;;;;;1.72;100.00;101717.13;5073695;28;20051;-69
2024/04/07 04:22:15;;;;;;;;;;;;;;;1.67;99.42;101722.63;5074273;28;19927;-69
2024/04/07 04:24:40;;;;;;;;;;;;;;;1.62;100.00;101736.94;5075931;28;19929;-69
2024/04/07 04:27:06;;;;;;;;;;;;;;;1.66;100.00;101748.97;5074486;28;19924;-70
2024/04/07 04:29:35;;;;;;;;;;;;;;;1.71;100.00;101760.06;5072512;28;20284;-70
2024/04/07 04:32:01;;;;;;;;;;;;;;;1.80;100.00;101762.22;5073375;28;20421;-70
2024/04/07 04:34:26;;;;;;;;;;;;;;;1.93;100.00;101757.16;5073582;28;19960;-70
2024/04/07 04:36:52;;;;;;;;;;;;;;;2.02;100.00;101746.97;5072773;28;19973;-71
2024/04/07 04:39:18;;;;;;;;;;;;;;;2.00;98.91;101735.69;5071703;28;19924;-71
2024/04/07 04:41:46;;;;;;;;;;;;;;;1.94;98.80;101736.03;5073162;28;19990;-67
2024/04/07 04:44:14;;;;;;;;;;;;;;;1.92;99.74;101719.53;5073199;28;20007;-68
2024/04/07 04:46:41;;;;;;;;;;;;;;;2.00;100.00;101716.47;5055303;28;19928;-70
2024/04/07 04:49:09;;;;;;;;;;;;;;;2.11;100.00;101714.13;5073710;28;19967;-70
2024/04/07 04:51:35;;;;;;;;;;;;;;;2.20;100.00;101718.84;5073835;28;20027;-70
2024/04/07 04:54:00;;;;;;;;;;;;;;;2.27;100.00;101714.09;5078707;28;19967;-68
2024/04/07 04:56:26;;;;;;;;;;;;;;;2.24;99.47;101709.84;5082224;28;19944;-67
2024/04/07 04:58:53;;;;;;;;;;;;;;;2.18;98.48;101724.19;5083883;28;19963;-69
2024/04/07 05:01:19;;;;;;;;;;;;;;;2.12;98.78;101731.56;5084440;28;20390;-68
2024/04/07 05:03:44;;;;;;;;;;;;;;;2.05;98.61;101741.59;5083825;28;19943;-69
2024/04/07 05:06:11;;;;;;;;;;;;;;;2.01;98.78;101740.03;5083959;28;19970;-69
2024/04/07 05:08:38;;;;;;;;;;;;;;;2.01;99.50;101740.03;5080141;28;19920;-72
2024/04/07 05:11:03;;;;;;;;;;;;;;;2.06;99.53;101737.19;5072989;28;19951;-71
2024/04/07 05:13:29;;;;;;;;;;;;;;;1.95;99.26;101737.75;5071786;28;19971;-70
2024/04/07 05:15:54;;;;;;;;;;;;;;;1.87;100.00;101726.81;5073136;28;19929;-68
2024/04/07 05:18:19;;;;;;;;;;;;;;;1.89;100.00;101740.72;5072855;28;19924;-71
2024/04/07 05:20:45;;;;;;;;;;;;;;;2.00;100.00;101745.38;5077678;28;19981;-69
2024/04/07 05:23:13;;;;;;;;;;;;;;;2.12;100.00;101758.69;5080220;28;19931;-69
2024/04/07 05:25:39;;;;;;;;;;;;;;;2.18;100.00;101749.63;5077126;28;19931;-69
2024/04/07 05:28:05;;;;;;;;;;;;;;;2.28;100.00;101749.97;5073332;28;19924;-68
2024/04/07 05:30:30;;;;;;;;;;;;;;;2.42;100.00;101756.16;5079379;28;20302;-69
2024/04/07 05:32:55;;;;;;;;;;;;;;;2.50;99.57;101763.59;5081487;28;19920;-68
2024/04/07 05:35:21;;;;;;;;;;;;;;;2.46;97.27;101767.34;5074215;28;20019;-70
2024/04/07 05:37:47;;;;;;;;;;;;;;;2.36;97.84;101774.06;5080619;28;19920;-72
2024/04/07 05:40:12;;;;;;;;;;;;;;;2.33;98.13;101751.41;5078582;28;19920;-69
2024/04/07 05:42:37;;;;;;;;;;;;;;;2.40;98.72;101746.66;5070783;28;20354;-71
2024/04/07 05:45:03;;;;;;;;;;;;;;;2.53;98.39;101747.66;5073099;28;19989;-66
2024/04/07 05:47:28;;;;;;;;;;;;;;;2.56;97.81;101758.00;5078079;28;20011;-68
2024/04/07 05:49:54;;;;;;;;;;;;;;;2.66;98.31;101768.84;5084149;28;19972;-68
2024/04/07 05:52:19;;;;;;;;;;;;;;;2.71;96.71;101758.91;5080813;28;19921;-69
2024/04/07 05:54:44;;;;;;;;;;;;;;;2.75;97.72;101755.16;5079327;28;19928;-72
2024/04/07 05:57:10;;;;;;;;;;;;;;;2.90;97.92;101761.34;5073532;28;19925;-70
2024/04/07 05:59:35;;;;;;;;;;;;;;;3.06;96.83;101762.13;5073383;28;20057;-70
2024/04/07 06:02:01;;;;;;;;;;;;;;;3.09;95.87;101751.41;5079846;28;19921;-71
2024/04/07 06:04:27;;;;;;;;;;;;;;;3.10;94.51;101753.13;5075528;28;19920;-69
2024/04/07 06:06:53;;;;;;;;;;;;;;;3.16;95.10;101749.28;5074922;28;19996;-71
2024/04/07 06:09:19;;;;;;;;;;;;;;;3.13;94.75;101747.66;5074869;28;19927;-71
2024/04/07 06:11:44;;;;;;;;;;;;;;;3.30;95.76;101760.69;5073317;28;19920;-71
2024/04/07 06:14:10;;;;;;;;;;;;;;;3.48;95.61;101760.53;5072022;28;19985;-72
2024/04/07 06:16:37;;;;;;;;;;;;;;;3.62;95.29;101768.44;5070120;28;20386;-70
2024/04/07 06:19:04;;;;;;;;;;;;;;;3.73;94.08;101758.91;5070726;28;19983;-73
2024/04/07 06:21:29;;;;;;;;;;;;;;;3.73;93.01;101755.44;5073754;28;19921;-75
2024/04/07 06:23:54;;;;;;;;;;;;;;;3.78;nan;101756.03;5054948;28;19971;-71
2024/04/07 06:26:20;;;;;;;;;;;;;;;3.83;92.61;101753.94;5054605;28;19952;-71
2024/04/07 06:28:45;;;;;;;;;;;;;;;3.71;91.05;101754.69;5072890;28;20307;-69
2024/04/07 06:31:11;;;;;;;;;;;;;;;3.64;91.74;101754.22;5071073;28;20247;-71
2024/04/07 06:33:37;;;;;;;;;;;;;;;3.65;91.89;101757.72;5070071;28;19970;-73
2024/04/07 06:36:02;;;;;;;;;;;;;;;3.71;92.51;101749.41;5071445;28;19928;-71
2024/04/07 06:38:27;;;;;;;;;;;;;;;3.72;92.54;101748.47;5071199;28;19920;-71
2024/04/07 06:40:53;;;;;;;;;;;;;;;3.85;91.96;101744.16;5069578;28;19920;-71
2024/04/07 06:43:18;;;;;;;;;;;;;;;3.86;91.23;101748.50;5071549;28;19926;-68
2024/04/07 06:45:44;;;;;;;;;;;;;;;3.94;91.34;101740.94;5070421;28;19955;-70
2024/04/07 06:48:09;;;;;;;;;;;;;;;4.09;92.25;101740.94;5052783;28;19967;-71
2024/04/07 06:50:34;;;;;;;;;;;;;;;4.36;92.70;101736.53;5071582;28;19920;-71
2024/04/07 06:53:00;;;;;;;;;;;;;;;4.18;88.73;101721.88;5070739;28;19924;-73
2024/04/07 06:55:26;;;;;;;;;;;;;;;4.11;91.27;101731.16;5071052;28;19920;-71
2024/04/07 06:57:51;;;;;;;;;;;;;;;4.39;91.69;101736.34;5070194;28;19921;-69
2024/04/07 07:00:17;;;;;;;;;;;;;;;4.65;89.14;101743.41;5072889;28;19927;-71
2024/04/07 07:02:42;;;;;;;;;;;;;;;4.64;87.17;101736.44;5072762;28;20403;-70
2024/04/07 07:05:08;;;;;;;;;;;;;;;4.34;89.20;101743.72;5073465;28;20445;-71
2024/04/07 07:07:33;;;;;;;;;;;;;;;4.23;89.01;101732.97;5073730;28;19966;-70
2024/04/07 07:09:59;;;;;;;;;;;;;;;3.86;90.99;101726.56;5073538;28;19963;-72
2024/04/07 07:12:24;;;;;;;;;;;;;;;3.66;91.71;101730.41;5074978;28;20022;-72
2024/04/07 07:14:51;;;;;;;;;;;;;;;3.70;94.33;101722.22;5074599;28;19921;-70
2024/04/07 07:17:16;;;;;;;;;;;;;;;3.82;92.82;101719.78;5073344;28;20387;-74
2024/04/07 07:19:42;;;;;;;;;;;;;;;3.71;92.64;101720.44;5074862;28;20015;-70
2024/04/07 07:22:07;;;;;;;;;;;;;;;3.60;93.35;101715.00;5074599;28;20015;-73
2024/04/07 07:24:32;;;;;;;;;;;;;;;3.65;94.56;101705.03;5073225;28;20340;-69
2024/04/07 07:27:02;;;;;;;;;;;;;;;3.72;93.68;101694.00;5074539;28;20377;-72
2024/04/07 07:29:27;;;;;;;;;;;;;;;3.71;92.87;101697.56;5074795;28;20335;-70
2024/04/07 07:31:57;;;;;;;;;;;;;;;3.78;93.88;101692.78;5075067;28;19978;-72
2024/04/07 07:34:25;;;;;;;;;;;;;;;3.82;92.90;101693.44;5073877;28;19990;-69
2024/04/07 07:36:51;;;;;;;;;;;;;;;3.88;93.63;101688.63;5074097;28;20241;-71
2024/04/07 07:39:17;;;;;;;;;;;;;;;3.97;92.99;101692.47;5074016;28;19931;-68
2024/04/07 07:41:42;;;;;;;;;;;;;;;3.94;93.13;101682.97;5073754;28;20036;-70
2024/04/07 07:44:08;;;;;;;;;;;;;;;3.99;93.21;101680.03;5089732;28;19920;-71
2024/04/07 07:46:33;;;;;;;;;;;;;;;4.07;93.00;101677.78;5075226;28;20403;-71
2024/04/07 07:48:58;;;;;;;;;;;;;;;4.03;91.32;101669.19;5073570;28;19958;-71
2024/04/07 07:51:24;;;;;;;;;;;;;;;4.09;92.48;101669.75;5072353;28;20433;-71
2024/04/07 07:53:50;;;;;;;;;;;;;;;4.19;91.66;101686.66;5054694;28;20356;-73
2024/04/07 07:56:15;;;;;;;;;;;;;;;4.31;92.03;101677.94;5072578;28;19935;-70
2024/04/07 07:58:41;;;;;;;;;;;;;;;4.41;90.26;101684.34;5055266;28;19921;-72
2024/04/07 08:01:06;;;;;;;;;;;;;;;4.31;88.14;101683.22;5072154;28;19981;-68
2024/04/07 08:03:32;;;;;;;;;;;;;;;4.13;88.92;101685.28;5072959;28;19920;-73
2024/04/07 08:05:57;;;;;;;;;;;;;;;4.25;89.09;101675.72;5074436;28;20445;-70
2024/04/07 08:08:23;;;;;;;;;;;;;;;4.34;89.02;101670.72;5071915;28;19947;-69
2024/04/07 08:10:48;;;;;;;;;;;;;;;4.34;88.54;101654.03;5071858;28;19921;-74
2024/04/07 08:13:14;;;;;;;;;;;;;;;4.47;89.15;101654.06;5073129;28;19920;-74
2024/04/07 08:15:41;;;;;;;;;;;;;;;4.66;88.40;101638.72;5072639;28;19921;-72
2024/04/07 08:18:09;;;;;;;;;;;;;;;4.91;88.47;101632.59;5073693;28;19927;-72
2024/04/07 08:20:34;;;;;;;;;;;;;;;5.01;86.80;101638.97;5072939;28;19955;-74
2024/04/07 08:23:00;;;;;;;;;;;;;;;4.95;86.72;101637.59;5073854;28;20470;-70
2024/04/07 08:25:26;;;;;;;;;;;;;;;5.03;87.67;101631.78;5071972;28;19929;-72
2024/04/07 08:27:52;;;;;;;;;;;;;;;5.10;84.77;101619.84;5071733;28;19928;-68
2024/04/07 08:30:18;;;;;;;;;;;;;;;5.08;84.77;101610.31;5073066;28;19985;-71
2024/04/07 08:32:44;;;;;;;;;;;;;;;5.15;85.41;101615.06;5074307;28;19920;-67
2024/04/07 08:35:10;;;;;;;;;;;;;;;5.16;86.23;101616.75;5090772;28;20280;-70
2024/04/07 08:37:38;;;;;;;;;;;;;;;5.44;85.65;101620.94;5073311;28;19965;-66
2024/04/07 08:40:04;;;;;;;;;;;;;;;5.66;83.94;101620.28;5074595;28;19978;-69
2024/04/07 08:42:30;;;;;;;;;;;;;;;5.76;82.27;101629.22;5074331;28;19927;-69
2024/04/07 08:44:55;;;;;;;;;;;;;;;5.80;82.83;101633.34;5074747;28;19921;-70
2024/04/07 08:47:22;;;;;;;;;;;;;;;5.80;81.21;101628.06;5073078;28;19931;-68
2024/04/07 08:49:50;;;;;;;;;;;;;;;5.70;82.50;101620.88;5071954;28;19920;-67
2024/04/07 08:52:16;;;;;;;;;;;;;;;5.60;82.58;101618.06;5072214;28;19920;-69
2024/04/07 08:54:41;;;;;;;;;;;;;;;5.55;83.50;101614.91;5073105;28;19931;-68
2024/04/07 08:57:11;;;;;;;;;;;;;;;5.63;84.52;101617.84;5072748;28;20295;-68
2024/04/07 08:59:37;;;;;;;;;;;;;;;5.86;84.50;101613.56;5073097;28;19966;-67
2024/04/07 09:02:03;;;;;;;;;;;;;;;5.97;84.01;101621.56;5072881;28;19920;-67
2024/04/07 09:04:32;;;;;;;;;;;;;;;6.08;82.06;101610.22;5071563;28;20414;-66
2024/04/07 09:06:58;;;;;;;;;;;;;;;6.12;81.50;101606.41;5072935;28;20011;-69
2024/04/07 09:09:24;;;;;;;;;;;;;;;6.14;81.18;101609.78;5074133;28;19927;-70
2024/04/07 09:11:51;;;;;;;;;;;;;;;6.18;81.42;101617.38;5074432;28;19920;-68
2024/04/07 09:14:17;;;;;;;;;;;;;;;6.26;80.60;101613.28;5073289;28;20338;-70
2024/04/07 09:16:42;;;;;;;;;;;;;;;6.09;80.66;101607.47;5072339;28;19920;-69
2024/04/07 09:19:07;;;;;;;;;;;;;;;6.06;82.27;101612.13;5073907;28;19921;-68
2024/04/07 09:21:33;;;;;;;;;;;;;;;6.07;81.77;101611.16;5073333;28;19920;-69
2024/04/07 09:23:58;;;;;;;;;;;;;;;5.88;80.59;101599.28;5072376;28;19921;-69
2024/04/07 09:26:24;;;;;;;;;;;;;;;5.72;82.04;101603.97;5088166;28;19924;-70
2024/04/07 09:28:49;;;;;;;;;;;;;;;5.39;82.69;101606.38;5072966;28;20218;-66
2024/04/07 09:31:15;;;;;;;;;;;;;;;5.14;84.01;101604.63;5071153;28;20027;-71
2024/04/07 09:33:44;;;;;;;;;;;;;;;4.97;86.40;101603.16;5072044;28;19921;-70
2024/04/07 09:36:09;;;;;;;;;;;;;;;5.03;87.72;101600.09;5070903;28;19959;-68
2024/04/07 09:38:36;;;;;;;;;;;;;;;5.05;87.13;101592.06;5071075;28;20001;-70
2024/04/07 09:41:02;;;;;;;;;;;;;;;5.31;87.56;101587.59;5073240;28;20318;-72
2024/04/07 09:43:28;;;;;;;;;;;;;;;5.44;86.62;101581.31;5071994;28;20015;-71
2024/04/07 09:45:54;;;;;;;;;;;;;;;5.46;86.32;101570.63;5054019;28;19943;-71
2024/04/07 09:48:20;;;;;;;;;;;;;;;5.32;86.85;101565.50;5072349;28;20330;-71
2024/04/07 09:50:49;;;;;;;;;;;;;;;5.43;87.25;101566.44;5054207;28;20375;-72
2024/04/07 09:53:19;;;;;;;;;;;;;;;5.65;86.90;101555.16;5070992;28;19928;-70
2024/04/07 09:55:47;;;;;;;;;;;;;;;5.65;86.74;101556.97;5073216;28;19920;-69
2024/04/07 09:58:13;;;;;;;;;;;;;;;5.77;86.64;101554.25;5072215;28;20023;-69
2024/04/07 10:00:39;;;;;;;;;;;;;;;5.99;86.22;101542.97;5072010;28;19920;-68
2024/04/07 10:03:05;;;;;;;;;;;;;;;6.01;85.10;101543.72;5072116;28;20271;-69
2024/04/07 10:05:30;;;;;;;;;;;;;;;6.07;85.92;101537.13;5088371;28;19931;-68
2024/04/07 10:07:56;;;;;;;;;;;;;;;6.19;85.06;101517.69;5072138;28;19920;-70
2024/04/07 10:10:25;;;;;;;;;;;;;;;6.31;85.07;101519.41;5072147;28;19921;-67
2024/04/07 10:12:50;;;;;;;;;;;;;;;6.45;83.79;101515.72;5074302;28;19932;-69
2024/04/07 10:15:23;;;;;;;;;;;;;;;6.48;83.43;101518.13;5054446;28;19921;-73
2024/04/07 10:17:49;;;;;;;;;;;;;;;6.47;83.09;101519.94;5053731;28;20011;-70
2024/04/07 10:20:14;;;;;;;;;;;;;;;6.46;83.98;101522.69;5071886;28;20416;-68
2024/04/07 10:22:42;;;;;;;;;;;;;;;6.52;84.96;101509.81;5071844;28;19920;-70
2024/04/07 10:25:09;;;;;;;;;;;;;;;6.53;84.05;101498.28;5071741;28;19920;-66
2024/04/07 10:27:41;;;;;;;;;;;;;;;6.48;84.11;101487.22;5070503;28;19925;-71
2024/04/07 10:30:09;;;;;;;;;;;;;;;6.38;83.72;101486.25;5070826;28;19925;-66
2024/04/07 10:32:36;;;;;;;;;;;;;;;6.42;85.25;101471.81;5070562;28;19968;-71
2024/04/07 10:35:09;;;;;;;;;;;;;;;6.41;84.89;101464.84;5071701;28;19921;-69
2024/04/07 10:37:35;;;;;;;;;;;;;;;6.52;84.73;101456.91;5073860;28;19960;-69
2024/04/07 10:40:01;;;;;;;;;;;;;;;6.46;83.86;101467.97;5078444;28;19935;-74
2024/04/07 10:42:27;;;;;;;;;;;;;;;6.30;84.28;101456.88;5081347;28;19920;-76
2024/04/07 10:44:52;;;;;;;;;;;;;;;6.23;85.43;101455.66;5092118;28;19980;-66
2024/04/07 10:47:18;;;;;;;;;;;;;;;6.26;85.75;101447.50;5086479;28;19928;-69
2024/04/07 10:49:43;;;;;;;;;;;;;;;6.24;85.78;101446.78;5084818;28;20430;-71
2024/04/07 10:52:13;;;;;;;;;;;;;;;6.13;86.36;101465.28;5074566;28;19971;-70
2024/04/07 10:54:38;;;;;;;;;;;;;;;6.04;86.83;101460.66;5076753;28;20359;-69
2024/04/07 10:57:04;;;;;;;;;;;;;;;6.00;87.90;101469.78;5076431;28;19932;-69
2024/04/07 10:59:29;;;;;;;;;;;;;;;5.95;88.26;101466.66;5076568;28;19921;-68
2024/04/07 11:01:54;;;;;;;;;;;;;;;5.95;87.95;101459.56;5091850;28;19920;-71
2024/04/07 11:04:20;;;;;;;;;;;;;;;5.92;87.77;101446.59;5076387;28;19943;-69
2024/04/07 11:06:45;;;;;;;;;;;;;;;5.83;89.44;101453.38;5077513;28;19921;-72
2024/04/07 11:09:10;;;;;;;;;;;;;;;5.86;89.03;101454.94;5075383;28;19931;-70
2024/04/07 11:11:36;;;;;;;;;;;;;;;5.83;88.52;101458.66;5075058;28;19927;-71
2024/04/07 11:14:01;;;;;;;;;;;;;;;5.86;88.79;101447.84;5073936;28;19960;-69
2024/04/07 11:16:26;;;;;;;;;;;;;;;5.89;88.73;101439.72;5076146;28;19920;-71
2024/04/07 11:18:55;;;;;;;;;;;;;;;6.06;89.27;101448.16;5075892;28;19928;-74
2024/04/07 11:21:21;;;;;;;;;;;;;;;6.20;89.71;101440.03;5075501;28;20023;-74
2024/04/07 11:23:46;;;;;;;;;;;;;;;6.32;88.86;101428.50;5084903;28;20430;-68
2024/04/07 11:26:12;;;;;;;;;;;;;;;6.34;89.05;101421.28;5079010;28;19928;-70
2024/04/07 11:28:39;;;;;;;;;;;;;;;6.36;87.80;101406.16;5075961;28;19931;-71
2024/04/07 11:31:08;;;;;;;;;;;;;;;6.37;89.29;101410.50;5059083;28;20127;-71
2024/04/07 11:33:34;;;;;;;;;;;;;;;6.38;89.09;101396.28;5077818;28;19924;-70
2024/04/07 11:35:59;;;;;;;;;;;;;;;6.40;89.04;101402.31;5080605;28;19958;-70
2024/04/07 11:38:24;;;;;;;;;;;;;;;6.33;88.55;101398.44;5079428;28;20011;-70
2024/04/07 11:40:50;;;;;;;;;;;;;;;6.22;88.83;101398.44;5075193;28;19924;-73
2024/04/07 11:43:16;;;;;;;;;;;;;;;6.24;90.00;101401.81;5072490;28;19920;-70
2024/04/07 11:45:44;;;;;;;;;;;;;;;6.25;90.01;101392.91;5077414;28;19924;-72
2024/04/07 11:48:09;;;;;;;;;;;;;;;6.25;89.02;101400.84;5074151;28;19921;-69
2024/04/07 11:50:35;;;;;;;;;;;;;;;6.18;89.33;101399.63;5074036;28;20616;-68
2024/04/07 11:53:00;;;;;;;;;;;;;;;6.16;90.14;101396.28;5072041;28;19932;-70
2024/04/07 11:55:26;;;;;;;;;;;;;;;6.19;89.87;101382.81;5073159;28;20418;-71
2024/04/07 11:57:51;;;;;;;;;;;;;;;6.19;90.23;101386.28;5072171;28;19931;-72
2024/04/07 12:00:17;;;;;;;;;;;;;;;6.29;90.88;101383.75;5074614;28;19947;-70
2024/04/07 12:02:49;;;;;;;;;;;;;;;6.40;90.19;101375.00;5075465;28;19928;-69
2024/04/07 12:05:18;;;;;;;;;;;;;;;6.51;90.25;101370.53;5075717;28;19924;-71
2024/04/07 12:07:43;;;;;;;;;;;;;;;6.51;89.55;101381.13;5075116;28;19922;-70
2024/04/07 12:10:08;;;;;;;;;;;;;;;6.52;89.41;101387.25;5075716;28;19920;-69
2024/04/07 12:12:34;;;;;;;;;;;;;;;6.38;89.25;101391.00;5073455;28;19950;-70
2024/04/07 12:14:59;;;;;;;;;;;;;;;6.16;90.63;101397.13;5073714;28;19969;-70
2024/04/07 12:17:25;;;;;;;;;;;;;;;6.09;92.05;101380.03;5072800;28;19921;-72
2024/04/07 12:19:50;;;;;;;;;;;;;;;6.10;91.94;101380.88;5073785;28;20315;-69
2024/04/07 12:22:16;;;;;;;;;;;;;;;6.11;92.03;101394.00;5073505;28;19927;-69
2024/04/07 12:24:42;;;;;;;;;;;;;;;6.16;91.96;101397.13;5072212;28;20387;-68
2024/04/07 12:27:07;;;;;;;;;;;;;;;6.19;91.80;101380.16;5073377;28;19931;-69
2024/04/07 12:29:34;;;;;;;;;;;;;;;6.22;91.58;101369.34;5088951;28;19935;-69
2024/04/07 12:32:00;;;;;;;;;;;;;;;6.38;91.93;101361.06;5073607;28;19924;-71
2024/04/07 12:34:25;;;;;;;;;;;;;;;6.45;91.04;101344.56;5072476;28;19962;-72
2024/04/07 12:36:51;;;;;;;;;;;;;;;6.53;90.34;101349.25;5071254;28;19920;-68
2024/04/07 12:39:17;;;;;;;;;;;;;;;6.60;90.56;101352.25;5073332;28;19966;-70
2024/04/07 12:41:44;;;;;;;;;;;;;;;6.62;90.08;101345.00;5072932;28;19920;-71